sensor_id;sensor_type;location;lat;lon;timestamp;P1;durP1;ratioP1;P2;durP2;ratioP2
9964;SDS011;5023;53.554;9.964;2023-08-20T00:04:41;14.85;;;10.38;;
9964;SDS011;5023;53.554;9.964;2023-08-20T00:09:47;17.10;;;11.02;;
9964;SDS011;5023;53.554;9.964;2023-08-20T00:14:52;15.10;;;7.72;;
9964;SDS011;5023;53.554;9.964;2023-08-20T00:19:55;15.02;;;8.45;;
9964;SDS011;5023;53.554;9.964;2023-08-20T00:24:59;13.38;;;8.13;;
9964;SDS011;5023;53.554;9.964;2023-08-20T00:30:03;13.85;;;8.20;;
9964;SDS011;5023;53.554;9.964;2023-08-20T00:35:05;15.20;;;11.50;;
9964;SDS011;5023;53.554;9.964;2023-08-20T00:40:10;11.90;;;8.80;;
9964;SDS011;5023;53.554;9.964;2023-08-20T00:45:12;10.32;;;7.97;;
9964;SDS011;5023;53.554;9.964;2023-08-20T00:50:14;20.00;;;16.90;;
9964;SDS011;5023;53.554;9.964;2023-08-20T00:55:18;19.15;;;13.70;;
9964;SDS011;5023;53.554;9.964;2023-08-20T01:00:20;17.02;;;12.13;;
9964;SDS011;5023;53.554;9.964;2023-08-20T01:05:24;19.05;;;13.32;;
9964;SDS011;5023;53.554;9.964;2023-08-20T01:10:32;15.23;;;11.30;;
9964;SDS011;5023;53.554;9.964;2023-08-20T01:15:39;23.85;;;16.95;;
9964;SDS011;5023;53.554;9.964;2023-08-20T01:20:41;19.05;;;15.32;;
9964;SDS011;5023;53.554;9.964;2023-08-20T01:25:56;22.88;;;17.30;;
9964;SDS011;5023;53.554;9.964;2023-08-20T01:31:09;24.10;;;18.02;;
9964;SDS011;5023;53.554;9.964;2023-08-20T01:36:13;15.15;;;10.35;;
9964;SDS011;5023;53.554;9.964;2023-08-20T01:41:15;15.43;;;10.05;;
9964;SDS011;5023;53.554;9.964;2023-08-20T01:46:18;13.27;;;9.05;;
9964;SDS011;5023;53.554;9.964;2023-08-20T01:51:20;11.57;;;9.20;;
9964;SDS011;5023;53.554;9.964;2023-08-20T01:56:22;12.23;;;9.85;;
9964;SDS011;5023;53.554;9.964;2023-08-20T02:01:25;14.40;;;10.73;;
9964;SDS011;5023;53.554;9.964;2023-08-20T02:06:27;14.63;;;10.57;;
9964;SDS011;5023;53.554;9.964;2023-08-20T02:11:29;13.25;;;9.25;;
9964;SDS011;5023;53.554;9.964;2023-08-20T02:16:36;18.42;;;10.02;;
9964;SDS011;5023;53.554;9.964;2023-08-20T02:21:38;15.45;;;10.85;;
9964;SDS011;5023;53.554;9.964;2023-08-20T02:26:41;18.02;;;12.85;;
9964;SDS011;5023;53.554;9.964;2023-08-20T02:31:44;21.80;;;15.00;;
9964;SDS011;5023;53.554;9.964;2023-08-20T02:36:46;33.45;;;27.05;;
9964;SDS011;5023;53.554;9.964;2023-08-20T02:41:48;19.95;;;16.92;;
9964;SDS011;5023;53.554;9.964;2023-08-20T02:46:51;20.08;;;17.08;;
9964;SDS011;5023;53.554;9.964;2023-08-20T02:51:53;15.45;;;13.85;;
9964;SDS011;5023;53.554;9.964;2023-08-20T02:56:55;21.33;;;15.65;;
9964;SDS011;5023;53.554;9.964;2023-08-20T03:01:58;18.08;;;14.05;;
9964;SDS011;5023;53.554;9.964;2023-08-20T03:07:01;21.95;;;15.50;;
9964;SDS011;5023;53.554;9.964;2023-08-20T03:12:04;21.50;;;16.52;;
9964;SDS011;5023;53.554;9.964;2023-08-20T03:17:09;20.10;;;16.20;;
9964;SDS011;5023;53.554;9.964;2023-08-20T03:22:10;26.58;;;18.80;;
9964;SDS011;5023;53.554;9.964;2023-08-20T03:27:12;26.55;;;17.83;;
9964;SDS011;5023;53.554;9.964;2023-08-20T03:32:16;29.98;;;21.08;;
9964;SDS011;5023;53.554;9.964;2023-08-20T03:37:18;33.67;;;24.83;;
9964;SDS011;5023;53.554;9.964;2023-08-20T03:42:19;29.73;;;22.20;;
9964;SDS011;5023;53.554;9.964;2023-08-20T03:47:23;33.75;;;22.88;;
9964;SDS011;5023;53.554;9.964;2023-08-20T03:52:25;33.67;;;21.25;;
9964;SDS011;5023;53.554;9.964;2023-08-20T03:57:27;29.00;;;20.17;;
9964;SDS011;5023;53.554;9.964;2023-08-20T04:02:30;32.33;;;21.13;;
9964;SDS011;5023;53.554;9.964;2023-08-20T04:07:32;35.20;;;28.88;;
9964;SDS011;5023;53.554;9.964;2023-08-20T04:12:34;22.52;;;17.23;;
9964;SDS011;5023;53.554;9.964;2023-08-20T04:17:37;42.70;;;16.85;;
9964;SDS011;5023;53.554;9.964;2023-08-20T04:22:39;24.75;;;18.58;;
9964;SDS011;5023;53.554;9.964;2023-08-20T04:27:41;23.33;;;16.38;;
9964;SDS011;5023;53.554;9.964;2023-08-20T04:32:45;24.80;;;16.88;;
9964;SDS011;5023;53.554;9.964;2023-08-20T04:37:46;35.50;;;13.55;;
9964;SDS011;5023;53.554;9.964;2023-08-20T04:42:48;18.88;;;14.80;;
9964;SDS011;5023;53.554;9.964;2023-08-20T04:47:52;18.25;;;14.45;;
9964;SDS011;5023;53.554;9.964;2023-08-20T04:52:54;17.50;;;14.43;;
9964;SDS011;5023;53.554;9.964;2023-08-20T04:57:56;20.63;;;14.23;;
9964;SDS011;5023;53.554;9.964;2023-08-20T05:02:59;18.52;;;12.48;;
9964;SDS011;5023;53.554;9.964;2023-08-20T05:08:01;13.65;;;11.93;;
9964;SDS011;5023;53.554;9.964;2023-08-20T05:13:03;23.52;;;17.75;;
9964;SDS011;5023;53.554;9.964;2023-08-20T05:18:07;24.50;;;18.55;;
9964;SDS011;5023;53.554;9.964;2023-08-20T05:23:09;26.23;;;19.00;;
9964;SDS011;5023;53.554;9.964;2023-08-20T05:28:11;31.63;;;20.45;;
9964;SDS011;5023;53.554;9.964;2023-08-20T05:33:14;30.35;;;21.42;;
9964;SDS011;5023;53.554;9.964;2023-08-20T05:38:16;32.15;;;20.95;;
9964;SDS011;5023;53.554;9.964;2023-08-20T05:43:18;30.77;;;19.63;;
9964;SDS011;5023;53.554;9.964;2023-08-20T05:48:22;31.25;;;20.15;;
9964;SDS011;5023;53.554;9.964;2023-08-20T05:53:24;33.88;;;19.40;;
9964;SDS011;5023;53.554;9.964;2023-08-20T05:58:26;23.98;;;17.55;;
9964;SDS011;5023;53.554;9.964;2023-08-20T06:03:29;25.60;;;18.73;;
9964;SDS011;5023;53.554;9.964;2023-08-20T06:08:31;29.42;;;18.80;;
9964;SDS011;5023;53.554;9.964;2023-08-20T06:13:33;22.77;;;16.92;;
9964;SDS011;5023;53.554;9.964;2023-08-20T06:18:36;23.50;;;17.55;;
9964;SDS011;5023;53.554;9.964;2023-08-20T06:23:38;27.50;;;20.50;;
9964;SDS011;5023;53.554;9.964;2023-08-20T06:28:40;22.48;;;18.73;;
9964;SDS011;5023;53.554;9.964;2023-08-20T06:33:44;23.38;;;18.63;;
9964;SDS011;5023;53.554;9.964;2023-08-20T06:38:46;18.80;;;16.35;;
9964;SDS011;5023;53.554;9.964;2023-08-20T06:43:48;21.77;;;16.95;;
9964;SDS011;5023;53.554;9.964;2023-08-20T06:48:51;19.27;;;16.63;;
9964;SDS011;5023;53.554;9.964;2023-08-20T06:53:53;21.77;;;16.17;;
9964;SDS011;5023;53.554;9.964;2023-08-20T06:58:56;17.77;;;15.32;;
9964;SDS011;5023;53.554;9.964;2023-08-20T07:04:01;17.95;;;14.20;;
9964;SDS011;5023;53.554;9.964;2023-08-20T07:09:03;18.85;;;16.38;;
9964;SDS011;5023;53.554;9.964;2023-08-20T07:14:05;20.35;;;16.83;;
9964;SDS011;5023;53.554;9.964;2023-08-20T07:19:09;18.85;;;16.90;;
9964;SDS011;5023;53.554;9.964;2023-08-20T07:24:11;24.98;;;22.25;;
9964;SDS011;5023;53.554;9.964;2023-08-20T07:29:13;17.98;;;16.17;;
9964;SDS011;5023;53.554;9.964;2023-08-20T07:34:16;14.57;;;11.73;;
9964;SDS011;5023;53.554;9.964;2023-08-20T07:39:21;13.27;;;10.35;;
9964;SDS011;5023;53.554;9.964;2023-08-20T07:44:23;11.60;;;9.75;;
9964;SDS011;5023;53.554;9.964;2023-08-20T07:49:26;10.25;;;8.90;;
9964;SDS011;5023;53.554;9.964;2023-08-20T07:54:28;12.25;;;9.45;;
9964;SDS011;5023;53.554;9.964;2023-08-20T07:59:31;12.13;;;8.57;;
9964;SDS011;5023;53.554;9.964;2023-08-20T08:04:35;7.78;;;6.95;;
9964;SDS011;5023;53.554;9.964;2023-08-20T08:09:37;9.05;;;7.18;;
9964;SDS011;5023;53.554;9.964;2023-08-20T08:14:39;8.15;;;6.57;;
9964;SDS011;5023;53.554;9.964;2023-08-20T08:19:42;7.95;;;6.28;;
9964;SDS011;5023;53.554;9.964;2023-08-20T08:24:44;18.55;;;14.40;;
9964;SDS011;5023;53.554;9.964;2023-08-20T08:29:46;8.23;;;5.43;;
9964;SDS011;5023;53.554;9.964;2023-08-20T08:34:50;7.78;;;4.75;;
9964;SDS011;5023;53.554;9.964;2023-08-20T08:39:52;8.40;;;5.30;;
9964;SDS011;5023;53.554;9.964;2023-08-20T08:44:54;6.18;;;4.47;;
9964;SDS011;5023;53.554;9.964;2023-08-20T08:49:58;6.47;;;4.47;;
9964;SDS011;5023;53.554;9.964;2023-08-20T08:55:00;5.93;;;4.13;;
9964;SDS011;5023;53.554;9.964;2023-08-20T09:00:03;5.55;;;4.00;;
9964;SDS011;5023;53.554;9.964;2023-08-20T09:05:08;6.88;;;4.35;;
9964;SDS011;5023;53.554;9.964;2023-08-20T09:10:10;6.90;;;4.22;;
9964;SDS011;5023;53.554;9.964;2023-08-20T09:15:12;6.75;;;4.85;;
9964;SDS011;5023;53.554;9.964;2023-08-20T09:20:15;6.28;;;5.40;;
9964;SDS011;5023;53.554;9.964;2023-08-20T09:25:17;5.63;;;4.40;;
9964;SDS011;5023;53.554;9.964;2023-08-20T09:30:19;5.57;;;4.88;;
9964;SDS011;5023;53.554;9.964;2023-08-20T09:35:23;5.63;;;5.07;;
9964;SDS011;5023;53.554;9.964;2023-08-20T09:40:25;6.03;;;4.97;;
9964;SDS011;5023;53.554;9.964;2023-08-20T09:45:28;5.43;;;4.57;;
9964;SDS011;5023;53.554;9.964;2023-08-20T09:50:31;7.93;;;4.55;;
9964;SDS011;5023;53.554;9.964;2023-08-20T09:55:37;6.47;;;4.43;;
9964;SDS011;5023;53.554;9.964;2023-08-20T10:00:40;6.15;;;4.57;;
9964;SDS011;5023;53.554;9.964;2023-08-20T10:05:44;6.60;;;3.90;;
9964;SDS011;5023;53.554;9.964;2023-08-20T10:10:47;6.78;;;3.75;;
9964;SDS011;5023;53.554;9.964;2023-08-20T10:15:49;6.55;;;3.97;;
9964;SDS011;5023;53.554;9.964;2023-08-20T10:20:53;6.50;;;3.75;;
9964;SDS011;5023;53.554;9.964;2023-08-20T10:26:06;5.72;;;3.47;;
9964;SDS011;5023;53.554;9.964;2023-08-20T10:31:09;4.47;;;3.30;;
9964;SDS011;5023;53.554;9.964;2023-08-20T10:36:15;5.20;;;3.22;;
9964;SDS011;5023;53.554;9.964;2023-08-20T10:41:19;6.93;;;3.47;;
9964;SDS011;5023;53.554;9.964;2023-08-20T10:46:27;7.75;;;5.40;;
9964;SDS011;5023;53.554;9.964;2023-08-20T10:51:32;4.30;;;3.15;;
9964;SDS011;5023;53.554;9.964;2023-08-20T10:56:39;6.35;;;3.25;;
9964;SDS011;5023;53.554;9.964;2023-08-20T11:01:43;7.38;;;3.42;;
9964;SDS011;5023;53.554;9.964;2023-08-20T11:06:49;5.18;;;3.53;;
9964;SDS011;5023;53.554;9.964;2023-08-20T11:11:53;4.75;;;3.60;;
9964;SDS011;5023;53.554;9.964;2023-08-20T11:16:55;7.85;;;5.40;;
9964;SDS011;5023;53.554;9.964;2023-08-20T11:21:59;6.85;;;4.38;;
9964;SDS011;5023;53.554;9.964;2023-08-20T11:30:43;9.25;;;4.18;;
9964;SDS011;5023;53.554;9.964;2023-08-20T11:35:47;4.57;;;3.55;;
9964;SDS011;5023;53.554;9.964;2023-08-20T11:40:49;5.35;;;3.08;;
9964;SDS011;5023;53.554;9.964;2023-08-20T11:45:53;8.25;;;5.60;;
9964;SDS011;5023;53.554;9.964;2023-08-20T11:50:56;5.53;;;3.40;;
9964;SDS011;5023;53.554;9.964;2023-08-20T11:55:58;5.22;;;3.40;;
9964;SDS011;5023;53.554;9.964;2023-08-20T12:01:06;7.07;;;3.47;;
9964;SDS011;5023;53.554;9.964;2023-08-20T12:06:18;6.55;;;5.03;;
9964;SDS011;5023;53.554;9.964;2023-08-20T12:11:23;7.45;;;4.28;;
9964;SDS011;5023;53.554;9.964;2023-08-20T12:16:27;5.72;;;4.32;;
9964;SDS011;5023;53.554;9.964;2023-08-20T12:21:30;13.23;;;7.03;;
9964;SDS011;5023;53.554;9.964;2023-08-20T12:26:32;5.25;;;3.67;;
9964;SDS011;5023;53.554;9.964;2023-08-20T12:31:35;4.88;;;3.20;;
9964;SDS011;5023;53.554;9.964;2023-08-20T12:36:37;6.93;;;3.50;;
9964;SDS011;5023;53.554;9.964;2023-08-20T12:41:39;4.47;;;3.17;;
9964;SDS011;5023;53.554;9.964;2023-08-20T12:46:42;5.78;;;4.55;;
9964;SDS011;5023;53.554;9.964;2023-08-20T12:51:44;5.10;;;2.80;;
9964;SDS011;5023;53.554;9.964;2023-08-20T12:56:46;6.22;;;3.08;;
9964;SDS011;5023;53.554;9.964;2023-08-20T13:01:49;4.70;;;3.83;;
9964;SDS011;5023;53.554;9.964;2023-08-20T13:06:52;4.10;;;3.00;;
9964;SDS011;5023;53.554;9.964;2023-08-20T13:11:57;6.60;;;3.20;;
9964;SDS011;5023;53.554;9.964;2023-08-20T13:17:05;4.15;;;3.00;;
9964;SDS011;5023;53.554;9.964;2023-08-20T13:22:08;8.48;;;4.43;;
9964;SDS011;5023;53.554;9.964;2023-08-20T13:27:10;5.57;;;3.75;;
9964;SDS011;5023;53.554;9.964;2023-08-20T13:32:13;4.85;;;2.97;;
9964;SDS011;5023;53.554;9.964;2023-08-20T13:37:17;3.45;;;2.88;;
9964;SDS011;5023;53.554;9.964;2023-08-20T13:42:19;5.18;;;3.45;;
9964;SDS011;5023;53.554;9.964;2023-08-20T13:47:22;4.60;;;3.35;;
9964;SDS011;5023;53.554;9.964;2023-08-20T13:52:24;3.42;;;2.78;;
9964;SDS011;5023;53.554;9.964;2023-08-20T13:57:26;7.55;;;6.28;;
9964;SDS011;5023;53.554;9.964;2023-08-20T14:02:30;4.35;;;2.78;;
9964;SDS011;5023;53.554;9.964;2023-08-20T14:07:32;7.20;;;5.18;;
9964;SDS011;5023;53.554;9.964;2023-08-20T14:12:34;4.55;;;3.05;;
9964;SDS011;5023;53.554;9.964;2023-08-20T14:17:37;4.57;;;2.80;;
9964;SDS011;5023;53.554;9.964;2023-08-20T14:22:39;4.72;;;3.25;;
9964;SDS011;5023;53.554;9.964;2023-08-20T14:27:41;5.63;;;5.03;;
9964;SDS011;5023;53.554;9.964;2023-08-20T14:32:45;4.78;;;3.60;;
9964;SDS011;5023;53.554;9.964;2023-08-20T14:37:46;3.35;;;2.92;;
9964;SDS011;5023;53.554;9.964;2023-08-20T14:42:48;4.30;;;2.85;;
9964;SDS011;5023;53.554;9.964;2023-08-20T14:47:52;4.10;;;3.78;;
9964;SDS011;5023;53.554;9.964;2023-08-20T14:52:54;4.13;;;3.05;;
9964;SDS011;5023;53.554;9.964;2023-08-20T14:57:56;4.65;;;3.80;;
9964;SDS011;5023;53.554;9.964;2023-08-20T15:02:59;4.28;;;2.88;;
9964;SDS011;5023;53.554;9.964;2023-08-20T15:08:01;6.03;;;3.20;;
9964;SDS011;5023;53.554;9.964;2023-08-20T15:13:04;2.90;;;2.60;;
9964;SDS011;5023;53.554;9.964;2023-08-20T15:18:07;4.30;;;2.20;;
9964;SDS011;5023;53.554;9.964;2023-08-20T15:23:10;3.42;;;2.80;;
9964;SDS011;5023;53.554;9.964;2023-08-20T15:28:12;4.32;;;3.92;;
9964;SDS011;5023;53.554;9.964;2023-08-20T15:33:16;4.47;;;4.05;;
9964;SDS011;5023;53.554;9.964;2023-08-20T15:38:18;4.28;;;3.20;;
9964;SDS011;5023;53.554;9.964;2023-08-20T15:43:20;4.32;;;3.35;;
9964;SDS011;5023;53.554;9.964;2023-08-20T15:48:23;3.38;;;3.08;;
9964;SDS011;5023;53.554;9.964;2023-08-20T15:53:25;7.88;;;5.32;;
9964;SDS011;5023;53.554;9.964;2023-08-20T15:58:29;5.28;;;4.70;;
9964;SDS011;5023;53.554;9.964;2023-08-20T16:03:32;4.50;;;3.63;;
9964;SDS011;5023;53.554;9.964;2023-08-20T16:08:34;4.15;;;2.42;;
9964;SDS011;5023;53.554;9.964;2023-08-20T16:13:36;7.47;;;6.10;;
9964;SDS011;5023;53.554;9.964;2023-08-20T16:18:40;5.47;;;4.97;;
9964;SDS011;5023;53.554;9.964;2023-08-20T16:23:42;5.63;;;3.80;;
9964;SDS011;5023;53.554;9.964;2023-08-20T16:28:44;3.67;;;2.40;;
9964;SDS011;5023;53.554;9.964;2023-08-20T16:33:47;4.07;;;3.25;;
9964;SDS011;5023;53.554;9.964;2023-08-20T16:38:49;3.78;;;3.33;;
9964;SDS011;5023;53.554;9.964;2023-08-20T16:43:51;7.47;;;5.63;;
9964;SDS011;5023;53.554;9.964;2023-08-20T16:48:54;10.43;;;9.43;;
9964;SDS011;5023;53.554;9.964;2023-08-20T16:53:57;15.05;;;13.25;;
9964;SDS011;5023;53.554;9.964;2023-08-20T16:58:59;8.57;;;7.15;;
9964;SDS011;5023;53.554;9.964;2023-08-20T17:04:02;6.75;;;6.07;;
9964;SDS011;5023;53.554;9.964;2023-08-20T17:09:05;5.32;;;3.83;;
9964;SDS011;5023;53.554;9.964;2023-08-20T17:14:08;8.13;;;6.55;;
9964;SDS011;5023;53.554;9.964;2023-08-20T17:19:11;5.13;;;3.60;;
9964;SDS011;5023;53.554;9.964;2023-08-20T17:24:13;5.40;;;3.55;;
9964;SDS011;5023;53.554;9.964;2023-08-20T17:29:15;7.28;;;4.40;;
9964;SDS011;5023;53.554;9.964;2023-08-20T17:34:18;7.72;;;6.95;;
9964;SDS011;5023;53.554;9.964;2023-08-20T17:39:20;5.03;;;3.45;;
9964;SDS011;5023;53.554;9.964;2023-08-20T17:44:22;4.93;;;4.35;;
9964;SDS011;5023;53.554;9.964;2023-08-20T17:49:25;5.40;;;3.00;;
9964;SDS011;5023;53.554;9.964;2023-08-20T17:54:27;4.13;;;3.30;;
9964;SDS011;5023;53.554;9.964;2023-08-20T17:59:29;5.20;;;3.72;;
9964;SDS011;5023;53.554;9.964;2023-08-20T18:04:32;4.15;;;3.30;;
9964;SDS011;5023;53.554;9.964;2023-08-20T18:09:35;5.00;;;3.15;;
9964;SDS011;5023;53.554;9.964;2023-08-20T18:14:37;4.32;;;3.53;;
9964;SDS011;5023;53.554;9.964;2023-08-20T18:19:40;10.55;;;8.10;;
9964;SDS011;5023;53.554;9.964;2023-08-20T18:24:42;8.15;;;5.40;;
9964;SDS011;5023;53.554;9.964;2023-08-20T18:29:44;9.38;;;7.82;;
9964;SDS011;5023;53.554;9.964;2023-08-20T18:34:47;6.65;;;4.68;;
9964;SDS011;5023;53.554;9.964;2023-08-20T18:39:49;5.28;;;3.42;;
9964;SDS011;5023;53.554;9.964;2023-08-20T18:44:51;9.68;;;6.18;;
9964;SDS011;5023;53.554;9.964;2023-08-20T18:49:55;7.38;;;6.28;;
9964;SDS011;5023;53.554;9.964;2023-08-20T18:54:57;6.22;;;3.17;;
9964;SDS011;5023;53.554;9.964;2023-08-20T18:59:59;5.90;;;3.30;;
9964;SDS011;5023;53.554;9.964;2023-08-20T19:05:02;6.78;;;3.50;;
9964;SDS011;5023;53.554;9.964;2023-08-20T19:10:06;7.88;;;4.80;;
9964;SDS011;5023;53.554;9.964;2023-08-20T19:15:09;14.98;;;13.05;;
9964;SDS011;5023;53.554;9.964;2023-08-20T19:20:12;24.60;;;21.83;;
9964;SDS011;5023;53.554;9.964;2023-08-20T19:25:14;7.75;;;5.00;;
9964;SDS011;5023;53.554;9.964;2023-08-20T19:30:16;5.80;;;3.72;;
9964;SDS011;5023;53.554;9.964;2023-08-20T19:35:20;13.30;;;11.98;;
9964;SDS011;5023;53.554;9.964;2023-08-20T19:40:22;8.00;;;5.10;;
9964;SDS011;5023;53.554;9.964;2023-08-20T19:45:24;7.80;;;4.25;;
9964;SDS011;5023;53.554;9.964;2023-08-20T19:50:27;7.50;;;5.00;;
9964;SDS011;5023;53.554;9.964;2023-08-20T19:55:29;14.00;;;11.52;;
9964;SDS011;5023;53.554;9.964;2023-08-20T20:00:31;34.38;;;30.80;;
9964;SDS011;5023;53.554;9.964;2023-08-20T20:05:34;11.32;;;9.15;;
9964;SDS011;5023;53.554;9.964;2023-08-20T20:10:36;16.73;;;12.80;;
9964;SDS011;5023;53.554;9.964;2023-08-20T20:15:38;12.00;;;9.05;;
9964;SDS011;5023;53.554;9.964;2023-08-20T20:20:41;10.07;;;8.25;;
9964;SDS011;5023;53.554;9.964;2023-08-20T20:25:48;7.50;;;4.22;;
9964;SDS011;5023;53.554;9.964;2023-08-20T20:30:50;20.02;;;14.88;;
9964;SDS011;5023;53.554;9.964;2023-08-20T20:35:53;10.32;;;8.57;;
9964;SDS011;5023;53.554;9.964;2023-08-20T20:40:55;23.40;;;19.83;;
9964;SDS011;5023;53.554;9.964;2023-08-20T20:45:57;11.48;;;6.07;;
9964;SDS011;5023;53.554;9.964;2023-08-20T20:51:00;23.90;;;18.17;;
9964;SDS011;5023;53.554;9.964;2023-08-20T20:56:03;21.05;;;16.73;;
9964;SDS011;5023;53.554;9.964;2023-08-20T21:01:05;18.70;;;16.65;;
9964;SDS011;5023;53.554;9.964;2023-08-20T21:06:11;11.38;;;8.40;;
9964;SDS011;5023;53.554;9.964;2023-08-20T21:11:13;8.77;;;4.85;;
9964;SDS011;5023;53.554;9.964;2023-08-20T21:16:14;14.90;;;10.25;;
9964;SDS011;5023;53.554;9.964;2023-08-20T21:21:19;25.73;;;20.77;;
9964;SDS011;5023;53.554;9.964;2023-08-20T21:26:21;17.63;;;14.52;;
9964;SDS011;5023;53.554;9.964;2023-08-20T21:31:23;8.73;;;5.60;;
9964;SDS011;5023;53.554;9.964;2023-08-20T21:36:26;7.93;;;5.45;;
9964;SDS011;5023;53.554;9.964;2023-08-20T21:41:28;10.77;;;8.77;;
9964;SDS011;5023;53.554;9.964;2023-08-20T21:46:30;9.40;;;5.78;;
9964;SDS011;5023;53.554;9.964;2023-08-20T21:51:41;6.45;;;4.70;;
9964;SDS011;5023;53.554;9.964;2023-08-20T21:56:47;7.63;;;5.20;;
9964;SDS011;5023;53.554;9.964;2023-08-20T22:01:55;12.25;;;9.52;;
9964;SDS011;5023;53.554;9.964;2023-08-20T22:06:59;11.13;;;7.00;;
9964;SDS011;5023;53.554;9.964;2023-08-20T22:12:08;11.75;;;10.45;;
9964;SDS011;5023;53.554;9.964;2023-08-20T22:17:11;30.88;;;23.15;;
9964;SDS011;5023;53.554;9.964;2023-08-20T22:22:15;9.30;;;5.72;;
9964;SDS011;5023;53.554;9.964;2023-08-20T22:27:17;18.33;;;11.48;;
9964;SDS011;5023;53.554;9.964;2023-08-20T22:32:27;7.10;;;5.63;;
9964;SDS011;5023;53.554;9.964;2023-08-20T22:37:40;8.25;;;5.65;;
9964;SDS011;5023;53.554;9.964;2023-08-20T22:43:14;9.05;;;4.97;;
9964;SDS011;5023;53.554;9.964;2023-08-20T22:48:17;12.05;;;7.38;;
9964;SDS011;5023;53.554;9.964;2023-08-20T22:53:20;14.23;;;10.85;;
9964;SDS011;5023;53.554;9.964;2023-08-20T22:58:22;9.88;;;5.18;;
9964;SDS011;5023;53.554;9.964;2023-08-20T23:03:24;28.60;;;23.80;;
9964;SDS011;5023;53.554;9.964;2023-08-20T23:08:27;10.05;;;7.90;;
9964;SDS011;5023;53.554;9.964;2023-08-20T23:13:29;9.20;;;6.57;;
9964;SDS011;5023;53.554;9.964;2023-08-20T23:18:31;15.00;;;9.73;;
9964;SDS011;5023;53.554;9.964;2023-08-20T23:23:35;8.90;;;4.78;;
9964;SDS011;5023;53.554;9.964;2023-08-20T23:28:37;25.67;;;20.17;;
9964;SDS011;5023;53.554;9.964;2023-08-20T23:33:38;11.45;;;8.43;;
9964;SDS011;5023;53.554;9.964;2023-08-20T23:38:42;16.17;;;12.52;;
9964;SDS011;5023;53.554;9.964;2023-08-20T23:43:44;9.40;;;5.47;;
9964;SDS011;5023;53.554;9.964;2023-08-20T23:48:46;13.95;;;8.73;;
9964;SDS011;5023;53.554;9.964;2023-08-20T23:53:49;9.60;;;4.97;;
9964;SDS011;5023;53.554;9.964;2023-08-20T23:58:51;7.10;;;4.90;;
